sensor_id;sensor_type;location;lat;lon;timestamp;temperature;humidity
4811;DHT22;2419;51.276;6.472;2023-06-22T00:00:54;21.10;99.90
4811;DHT22;2419;51.276;6.472;2023-06-22T00:03:23;21.10;99.90
4811;DHT22;2419;51.276;6.472;2023-06-22T00:05:53;21.10;99.90
4811;DHT22;2419;51.276;6.472;2023-06-22T00:08:21;21.10;99.90
4811;DHT22;2419;51.276;6.472;2023-06-22T00:10:50;21.10;99.90
4811;DHT22;2419;51.276;6.472;2023-06-22T00:13:18;21.00;99.90
4811;DHT22;2419;51.276;6.472;2023-06-22T00:15:46;21.00;99.90
4811;DHT22;2419;51.276;6.472;2023-06-22T00:18:14;20.90;99.90
4811;DHT22;2419;51.276;6.472;2023-06-22T00:20:42;20.90;99.90
4811;DHT22;2419;51.276;6.472;2023-06-22T00:23:12;20.90;99.90
4811;DHT22;2419;51.276;6.472;2023-06-22T00:25:42;20.90;99.90
4811;DHT22;2419;51.276;6.472;2023-06-22T00:28:15;20.90;99.90
4811;DHT22;2419;51.276;6.472;2023-06-22T00:30:43;20.80;99.90
4811;DHT22;2419;51.276;6.472;2023-06-22T00:33:12;20.80;99.90
4811;DHT22;2419;51.276;6.472;2023-06-22T00:35:40;20.80;99.90
4811;DHT22;2419;51.276;6.472;2023-06-22T00:38:08;20.80;99.90
4811;DHT22;2419;51.276;6.472;2023-06-22T00:40:36;20.70;99.90
4811;DHT22;2419;51.276;6.472;2023-06-22T00:43:05;20.70;99.90
4811;DHT22;2419;51.276;6.472;2023-06-22T00:45:36;20.70;99.90
4811;DHT22;2419;51.276;6.472;2023-06-22T00:48:05;20.70;99.90
4811;DHT22;2419;51.276;6.472;2023-06-22T00:50:34;20.70;99.90
4811;DHT22;2419;51.276;6.472;2023-06-22T00:53:04;20.70;99.90
4811;DHT22;2419;51.276;6.472;2023-06-22T00:55:36;20.70;71.30
4811;DHT22;2419;51.276;6.472;2023-06-22T00:58:06;20.60;76.60
4811;DHT22;2419;51.276;6.472;2023-06-22T01:00:39;20.60;72.90
4811;DHT22;2419;51.276;6.472;2023-06-22T01:03:08;20.60;99.90
4811;DHT22;2419;51.276;6.472;2023-06-22T01:05:38;20.60;99.90
4811;DHT22;2419;51.276;6.472;2023-06-22T01:08:15;20.60;99.90
4811;DHT22;2419;51.276;6.472;2023-06-22T01:10:48;20.60;99.90
4811;DHT22;2419;51.276;6.472;2023-06-22T01:13:27;20.60;99.90
4811;DHT22;2419;51.276;6.472;2023-06-22T01:16:02;20.60;99.90
4811;DHT22;2419;51.276;6.472;2023-06-22T01:18:32;20.60;99.90
4811;DHT22;2419;51.276;6.472;2023-06-22T01:21:04;20.60;99.90
4811;DHT22;2419;51.276;6.472;2023-06-22T01:23:47;20.60;99.90
4811;DHT22;2419;51.276;6.472;2023-06-22T01:26:21;20.60;99.90
4811;DHT22;2419;51.276;6.472;2023-06-22T01:28:53;20.60;99.90
4811;DHT22;2419;51.276;6.472;2023-06-22T01:31:24;20.60;99.90
4811;DHT22;2419;51.276;6.472;2023-06-22T01:33:54;20.70;99.90
4811;DHT22;2419;51.276;6.472;2023-06-22T01:36:24;20.60;99.90
4811;DHT22;2419;51.276;6.472;2023-06-22T01:38:53;20.60;99.90
4811;DHT22;2419;51.276;6.472;2023-06-22T01:41:24;20.60;99.90
4811;DHT22;2419;51.276;6.472;2023-06-22T01:43:54;20.60;99.90
4811;DHT22;2419;51.276;6.472;2023-06-22T01:46:23;20.60;99.90
4811;DHT22;2419;51.276;6.472;2023-06-22T01:48:51;20.50;99.90
4811;DHT22;2419;51.276;6.472;2023-06-22T01:51:21;20.50;99.90
4811;DHT22;2419;51.276;6.472;2023-06-22T01:53:50;20.50;99.90
4811;DHT22;2419;51.276;6.472;2023-06-22T01:56:18;20.50;99.90
4811;DHT22;2419;51.276;6.472;2023-06-22T01:58:51;20.50;99.90
4811;DHT22;2419;51.276;6.472;2023-06-22T02:01:26;20.50;99.90
4811;DHT22;2419;51.276;6.472;2023-06-22T02:04:02;20.50;99.90
4811;DHT22;2419;51.276;6.472;2023-06-22T02:06:34;20.40;99.90
4811;DHT22;2419;51.276;6.472;2023-06-22T02:09:08;20.40;99.90
4811;DHT22;2419;51.276;6.472;2023-06-22T02:11:41;20.50;99.90
4811;DHT22;2419;51.276;6.472;2023-06-22T02:14:10;20.40;99.90
4811;DHT22;2419;51.276;6.472;2023-06-22T02:16:40;20.50;99.90
4811;DHT22;2419;51.276;6.472;2023-06-22T02:19:09;20.50;99.90
4811;DHT22;2419;51.276;6.472;2023-06-22T02:21:37;20.50;99.90
4811;DHT22;2419;51.276;6.472;2023-06-22T02:24:05;20.40;99.90
4811;DHT22;2419;51.276;6.472;2023-06-22T02:26:33;20.40;99.90
4811;DHT22;2419;51.276;6.472;2023-06-22T02:29:01;20.50;99.90
4811;DHT22;2419;51.276;6.472;2023-06-22T02:31:29;20.50;99.90
4811;DHT22;2419;51.276;6.472;2023-06-22T02:34:00;20.40;99.90
4811;DHT22;2419;51.276;6.472;2023-06-22T02:36:28;20.40;99.90
4811;DHT22;2419;51.276;6.472;2023-06-22T02:39:00;20.30;99.90
4811;DHT22;2419;51.276;6.472;2023-06-22T02:41:30;20.30;99.90
4811;DHT22;2419;51.276;6.472;2023-06-22T02:43:58;20.30;99.90
4811;DHT22;2419;51.276;6.472;2023-06-22T02:46:26;20.20;99.90
4811;DHT22;2419;51.276;6.472;2023-06-22T02:48:54;20.30;99.90
4811;DHT22;2419;51.276;6.472;2023-06-22T02:51:23;20.20;99.90
4811;DHT22;2419;51.276;6.472;2023-06-22T02:53:51;20.20;99.90
4811;DHT22;2419;51.276;6.472;2023-06-22T02:56:28;20.20;99.90
4811;DHT22;2419;51.276;6.472;2023-06-22T02:58:59;20.10;99.90
4811;DHT22;2419;51.276;6.472;2023-06-22T03:01:33;20.10;99.90
4811;DHT22;2419;51.276;6.472;2023-06-22T03:04:16;20.10;99.90
4811;DHT22;2419;51.276;6.472;2023-06-22T03:06:45;20.10;99.90
4811;DHT22;2419;51.276;6.472;2023-06-22T03:09:17;20.10;99.90
4811;DHT22;2419;51.276;6.472;2023-06-22T03:11:45;20.00;99.90
4811;DHT22;2419;51.276;6.472;2023-06-22T03:14:14;20.00;99.90
4811;DHT22;2419;51.276;6.472;2023-06-22T03:16:42;20.00;99.90
4811;DHT22;2419;51.276;6.472;2023-06-22T03:19:11;20.00;99.90
4811;DHT22;2419;51.276;6.472;2023-06-22T03:21:39;20.00;99.90
4811;DHT22;2419;51.276;6.472;2023-06-22T03:24:09;20.00;99.90
4811;DHT22;2419;51.276;6.472;2023-06-22T03:26:38;20.10;99.90
4811;DHT22;2419;51.276;6.472;2023-06-22T03:29:06;20.10;99.90
4811;DHT22;2419;51.276;6.472;2023-06-22T03:31:34;20.10;99.90
4811;DHT22;2419;51.276;6.472;2023-06-22T03:34:02;20.00;99.90
4811;DHT22;2419;51.276;6.472;2023-06-22T03:36:30;20.00;99.90
4811;DHT22;2419;51.276;6.472;2023-06-22T03:39:01;20.00;99.90
4811;DHT22;2419;51.276;6.472;2023-06-22T03:41:31;20.00;99.90
4811;DHT22;2419;51.276;6.472;2023-06-22T03:43:59;20.00;99.90
4811;DHT22;2419;51.276;6.472;2023-06-22T03:46:27;20.00;99.90
4811;DHT22;2419;51.276;6.472;2023-06-22T03:48:55;20.00;99.90
4811;DHT22;2419;51.276;6.472;2023-06-22T03:51:24;20.00;99.90
4811;DHT22;2419;51.276;6.472;2023-06-22T03:53:52;20.00;99.90
4811;DHT22;2419;51.276;6.472;2023-06-22T03:56:20;20.00;99.90
4811;DHT22;2419;51.276;6.472;2023-06-22T03:58:49;20.00;99.90
4811;DHT22;2419;51.276;6.472;2023-06-22T04:01:18;20.10;99.90
4811;DHT22;2419;51.276;6.472;2023-06-22T04:03:46;20.10;99.90
4811;DHT22;2419;51.276;6.472;2023-06-22T04:06:16;20.10;99.90
4811;DHT22;2419;51.276;6.472;2023-06-22T04:08:45;20.20;99.90
4811;DHT22;2419;51.276;6.472;2023-06-22T04:11:17;20.20;99.90
4811;DHT22;2419;51.276;6.472;2023-06-22T04:13:45;20.20;99.90
4811;DHT22;2419;51.276;6.472;2023-06-22T04:16:16;20.30;99.90
4811;DHT22;2419;51.276;6.472;2023-06-22T04:18:45;20.30;99.90
4811;DHT22;2419;51.276;6.472;2023-06-22T04:21:13;20.30;99.90
4811;DHT22;2419;51.276;6.472;2023-06-22T04:23:41;20.30;99.90
4811;DHT22;2419;51.276;6.472;2023-06-22T04:26:09;20.40;99.90
4811;DHT22;2419;51.276;6.472;2023-06-22T04:28:37;20.40;99.90
4811;DHT22;2419;51.276;6.472;2023-06-22T04:31:05;20.40;99.90
4811;DHT22;2419;51.276;6.472;2023-06-22T04:33:35;20.40;99.90
4811;DHT22;2419;51.276;6.472;2023-06-22T04:36:04;20.30;99.90
4811;DHT22;2419;51.276;6.472;2023-06-22T04:38:32;20.30;99.90
4811;DHT22;2419;51.276;6.472;2023-06-22T04:41:00;20.30;99.90
4811;DHT22;2419;51.276;6.472;2023-06-22T04:43:29;20.40;99.90
4811;DHT22;2419;51.276;6.472;2023-06-22T04:45:58;20.40;99.90
4811;DHT22;2419;51.276;6.472;2023-06-22T04:48:30;20.40;99.90
4811;DHT22;2419;51.276;6.472;2023-06-22T04:51:01;20.40;99.90
4811;DHT22;2419;51.276;6.472;2023-06-22T04:53:31;20.40;99.90
4811;DHT22;2419;51.276;6.472;2023-06-22T04:55:59;20.50;99.90
4811;DHT22;2419;51.276;6.472;2023-06-22T04:58:27;20.50;99.90
4811;DHT22;2419;51.276;6.472;2023-06-22T05:00:55;20.50;99.90
4811;DHT22;2419;51.276;6.472;2023-06-22T05:03:25;20.60;99.90
4811;DHT22;2419;51.276;6.472;2023-06-22T05:05:54;20.70;99.90
4811;DHT22;2419;51.276;6.472;2023-06-22T05:08:23;20.70;99.90
4811;DHT22;2419;51.276;6.472;2023-06-22T05:10:53;20.70;99.90
4811;DHT22;2419;51.276;6.472;2023-06-22T05:13:32;20.70;99.90
4811;DHT22;2419;51.276;6.472;2023-06-22T05:16:00;20.80;99.90
4811;DHT22;2419;51.276;6.472;2023-06-22T05:18:30;20.70;99.90
4811;DHT22;2419;51.276;6.472;2023-06-22T05:21:00;20.70;99.90
4811;DHT22;2419;51.276;6.472;2023-06-22T05:23:29;20.80;99.90
4811;DHT22;2419;51.276;6.472;2023-06-22T05:25:57;20.70;99.90
4811;DHT22;2419;51.276;6.472;2023-06-22T05:28:25;20.70;99.90
4811;DHT22;2419;51.276;6.472;2023-06-22T05:30:54;20.70;99.90
4811;DHT22;2419;51.276;6.472;2023-06-22T05:33:22;20.70;99.90
4811;DHT22;2419;51.276;6.472;2023-06-22T05:35:50;20.80;99.90
4811;DHT22;2419;51.276;6.472;2023-06-22T05:38:18;20.70;99.90
4811;DHT22;2419;51.276;6.472;2023-06-22T05:40:47;20.70;99.90
4811;DHT22;2419;51.276;6.472;2023-06-22T05:43:15;20.80;99.90
4811;DHT22;2419;51.276;6.472;2023-06-22T05:45:43;20.70;99.90
4811;DHT22;2419;51.276;6.472;2023-06-22T05:48:11;20.80;99.90
4811;DHT22;2419;51.276;6.472;2023-06-22T05:50:39;20.80;99.90
4811;DHT22;2419;51.276;6.472;2023-06-22T05:53:08;20.80;99.90
4811;DHT22;2419;51.276;6.472;2023-06-22T05:55:36;20.90;99.90
4811;DHT22;2419;51.276;6.472;2023-06-22T05:58:05;21.00;99.90
4811;DHT22;2419;51.276;6.472;2023-06-22T06:00:34;21.00;99.90
4811;DHT22;2419;51.276;6.472;2023-06-22T06:03:03;21.00;99.90
4811;DHT22;2419;51.276;6.472;2023-06-22T06:05:31;21.00;99.90
4811;DHT22;2419;51.276;6.472;2023-06-22T06:08:00;21.10;99.90
4811;DHT22;2419;51.276;6.472;2023-06-22T06:10:28;21.10;99.90
4811;DHT22;2419;51.276;6.472;2023-06-22T06:12:57;21.10;99.90
4811;DHT22;2419;51.276;6.472;2023-06-22T06:15:27;21.10;99.90
4811;DHT22;2419;51.276;6.472;2023-06-22T06:17:55;21.10;99.90
4811;DHT22;2419;51.276;6.472;2023-06-22T06:20:24;21.10;99.90
4811;DHT22;2419;51.276;6.472;2023-06-22T06:22:54;21.20;99.90
4811;DHT22;2419;51.276;6.472;2023-06-22T06:25:23;21.20;99.90
4811;DHT22;2419;51.276;6.472;2023-06-22T06:27:51;21.20;99.90
4811;DHT22;2419;51.276;6.472;2023-06-22T06:30:21;21.20;99.90
4811;DHT22;2419;51.276;6.472;2023-06-22T06:32:51;21.20;99.90
4811;DHT22;2419;51.276;6.472;2023-06-22T06:35:19;21.30;99.90
4811;DHT22;2419;51.276;6.472;2023-06-22T06:37:49;21.40;99.90
4811;DHT22;2419;51.276;6.472;2023-06-22T06:40:18;21.50;99.90
4811;DHT22;2419;51.276;6.472;2023-06-22T06:42:49;21.60;99.90
4811;DHT22;2419;51.276;6.472;2023-06-22T06:45:19;21.60;99.90
4811;DHT22;2419;51.276;6.472;2023-06-22T06:47:47;21.70;99.90
4811;DHT22;2419;51.276;6.472;2023-06-22T06:50:17;21.70;99.90
4811;DHT22;2419;51.276;6.472;2023-06-22T06:52:45;21.70;99.90
4811;DHT22;2419;51.276;6.472;2023-06-22T06:55:13;21.70;99.90
4811;DHT22;2419;51.276;6.472;2023-06-22T06:57:42;21.70;99.90
4811;DHT22;2419;51.276;6.472;2023-06-22T07:00:11;21.70;99.90
4811;DHT22;2419;51.276;6.472;2023-06-22T07:02:52;21.70;99.90
4811;DHT22;2419;51.276;6.472;2023-06-22T07:05:22;21.80;99.90
4811;DHT22;2419;51.276;6.472;2023-06-22T07:07:50;21.70;99.90
4811;DHT22;2419;51.276;6.472;2023-06-22T07:10:18;21.70;99.90
4811;DHT22;2419;51.276;6.472;2023-06-22T07:12:46;21.60;99.90
4811;DHT22;2419;51.276;6.472;2023-06-22T07:15:14;21.60;99.90
4811;DHT22;2419;51.276;6.472;2023-06-22T07:17:42;21.60;99.90
4811;DHT22;2419;51.276;6.472;2023-06-22T07:20:11;21.60;99.90
4811;DHT22;2419;51.276;6.472;2023-06-22T07:22:43;21.50;99.90
4811;DHT22;2419;51.276;6.472;2023-06-22T07:25:12;21.50;99.90
4811;DHT22;2419;51.276;6.472;2023-06-22T07:27:55;21.40;99.90
4811;DHT22;2419;51.276;6.472;2023-06-22T07:30:24;21.40;99.90
4811;DHT22;2419;51.276;6.472;2023-06-22T07:32:53;21.40;99.90
4811;DHT22;2419;51.276;6.472;2023-06-22T07:35:21;21.30;99.90
4811;DHT22;2419;51.276;6.472;2023-06-22T07:37:50;21.30;99.90
4811;DHT22;2419;51.276;6.472;2023-06-22T07:40:18;21.30;99.90
4811;DHT22;2419;51.276;6.472;2023-06-22T07:42:46;21.30;99.90
4811;DHT22;2419;51.276;6.472;2023-06-22T07:45:18;21.20;99.90
4811;DHT22;2419;51.276;6.472;2023-06-22T07:47:46;21.20;99.90
4811;DHT22;2419;51.276;6.472;2023-06-22T07:50:14;21.20;99.90
4811;DHT22;2419;51.276;6.472;2023-06-22T07:52:42;21.10;99.90
4811;DHT22;2419;51.276;6.472;2023-06-22T07:55:15;21.10;99.90
4811;DHT22;2419;51.276;6.472;2023-06-22T07:57:44;21.20;99.90
4811;DHT22;2419;51.276;6.472;2023-06-22T08:00:12;21.40;99.90
4811;DHT22;2419;51.276;6.472;2023-06-22T08:02:44;21.60;99.90
4811;DHT22;2419;51.276;6.472;2023-06-22T08:05:14;21.90;99.90
4811;DHT22;2419;51.276;6.472;2023-06-22T08:07:45;22.30;99.90
4811;DHT22;2419;51.276;6.472;2023-06-22T08:10:16;22.50;99.90
4811;DHT22;2419;51.276;6.472;2023-06-22T08:12:44;22.80;99.90
4811;DHT22;2419;51.276;6.472;2023-06-22T08:15:12;22.90;99.90
4811;DHT22;2419;51.276;6.472;2023-06-22T08:17:40;23.00;99.90
4811;DHT22;2419;51.276;6.472;2023-06-22T08:20:10;23.00;99.90
4811;DHT22;2419;51.276;6.472;2023-06-22T08:22:39;23.00;99.90
4811;DHT22;2419;51.276;6.472;2023-06-22T08:25:08;22.80;99.90
4811;DHT22;2419;51.276;6.472;2023-06-22T08:27:38;22.90;99.90
4811;DHT22;2419;51.276;6.472;2023-06-22T08:30:07;22.80;99.90
4811;DHT22;2419;51.276;6.472;2023-06-22T08:32:38;22.80;99.90
4811;DHT22;2419;51.276;6.472;2023-06-22T08:35:06;22.80;99.90
4811;DHT22;2419;51.276;6.472;2023-06-22T08:37:35;22.80;99.90
4811;DHT22;2419;51.276;6.472;2023-06-22T08:40:04;22.60;99.90
4811;DHT22;2419;51.276;6.472;2023-06-22T08:42:34;22.60;99.90
4811;DHT22;2419;51.276;6.472;2023-06-22T08:45:05;22.70;99.90
4811;DHT22;2419;51.276;6.472;2023-06-22T08:47:33;22.70;99.90
4811;DHT22;2419;51.276;6.472;2023-06-22T08:50:01;22.90;99.90
4811;DHT22;2419;51.276;6.472;2023-06-22T08:52:30;23.00;99.90
4811;DHT22;2419;51.276;6.472;2023-06-22T08:54:58;23.20;99.90
4811;DHT22;2419;51.276;6.472;2023-06-22T08:57:27;23.40;99.90
4811;DHT22;2419;51.276;6.472;2023-06-22T08:59:55;23.50;99.90
4811;DHT22;2419;51.276;6.472;2023-06-22T09:02:27;23.60;99.90
4811;DHT22;2419;51.276;6.472;2023-06-22T09:04:58;23.80;99.90
4811;DHT22;2419;51.276;6.472;2023-06-22T09:07:26;24.00;99.90
4811;DHT22;2419;51.276;6.472;2023-06-22T09:09:55;24.20;99.90
4811;DHT22;2419;51.276;6.472;2023-06-22T09:12:23;24.40;99.90
4811;DHT22;2419;51.276;6.472;2023-06-22T09:14:53;24.80;99.90
4811;DHT22;2419;51.276;6.472;2023-06-22T09:17:22;25.20;99.90
4811;DHT22;2419;51.276;6.472;2023-06-22T09:19:52;25.50;99.90
4811;DHT22;2419;51.276;6.472;2023-06-22T09:22:20;25.80;99.90
4811;DHT22;2419;51.276;6.472;2023-06-22T09:24:48;26.00;99.90
4811;DHT22;2419;51.276;6.472;2023-06-22T09:27:16;26.20;99.90
4811;DHT22;2419;51.276;6.472;2023-06-22T09:29:44;26.30;99.90
4811;DHT22;2419;51.276;6.472;2023-06-22T09:32:13;26.30;99.90
4811;DHT22;2419;51.276;6.472;2023-06-22T09:34:41;26.40;99.90
4811;DHT22;2419;51.276;6.472;2023-06-22T09:37:10;26.50;99.90
4811;DHT22;2419;51.276;6.472;2023-06-22T09:39:38;26.60;99.90
4811;DHT22;2419;51.276;6.472;2023-06-22T09:42:07;26.70;99.90
4811;DHT22;2419;51.276;6.472;2023-06-22T09:44:35;26.70;99.90
4811;DHT22;2419;51.276;6.472;2023-06-22T09:47:03;26.90;99.90
4811;DHT22;2419;51.276;6.472;2023-06-22T09:49:31;27.20;99.90
4811;DHT22;2419;51.276;6.472;2023-06-22T09:52:16;27.20;99.90
4811;DHT22;2419;51.276;6.472;2023-06-22T09:54:44;27.50;99.90
4811;DHT22;2419;51.276;6.472;2023-06-22T09:57:12;27.60;99.90
4811;DHT22;2419;51.276;6.472;2023-06-22T09:59:40;27.60;99.90
4811;DHT22;2419;51.276;6.472;2023-06-22T10:02:08;27.50;99.90
4811;DHT22;2419;51.276;6.472;2023-06-22T10:04:37;27.50;99.90
4811;DHT22;2419;51.276;6.472;2023-06-22T10:07:06;27.40;99.90
4811;DHT22;2419;51.276;6.472;2023-06-22T10:09:36;27.30;99.90
4811;DHT22;2419;51.276;6.472;2023-06-22T10:12:04;27.30;99.90
4811;DHT22;2419;51.276;6.472;2023-06-22T10:14:33;27.10;99.90
4811;DHT22;2419;51.276;6.472;2023-06-22T10:17:01;26.90;99.90
4811;DHT22;2419;51.276;6.472;2023-06-22T10:19:30;26.80;99.90
4811;DHT22;2419;51.276;6.472;2023-06-22T10:21:58;26.60;99.90
4811;DHT22;2419;51.276;6.472;2023-06-22T10:24:26;26.30;99.90
4811;DHT22;2419;51.276;6.472;2023-06-22T10:26:55;26.20;99.90
4811;DHT22;2419;51.276;6.472;2023-06-22T10:29:23;25.90;99.90
4811;DHT22;2419;51.276;6.472;2023-06-22T10:31:51;25.70;99.90
4811;DHT22;2419;51.276;6.472;2023-06-22T10:34:19;25.60;99.90
4811;DHT22;2419;51.276;6.472;2023-06-22T10:36:47;25.40;99.90
4811;DHT22;2419;51.276;6.472;2023-06-22T10:39:15;25.30;99.90
4811;DHT22;2419;51.276;6.472;2023-06-22T10:41:43;25.10;99.90
4811;DHT22;2419;51.276;6.472;2023-06-22T10:44:13;24.90;99.90
4811;DHT22;2419;51.276;6.472;2023-06-22T10:46:41;24.80;99.90
4811;DHT22;2419;51.276;6.472;2023-06-22T10:49:09;24.80;99.90
4811;DHT22;2419;51.276;6.472;2023-06-22T10:51:37;24.70;99.90
4811;DHT22;2419;51.276;6.472;2023-06-22T10:54:05;24.70;99.90
4811;DHT22;2419;51.276;6.472;2023-06-22T10:56:33;24.60;99.90
4811;DHT22;2419;51.276;6.472;2023-06-22T10:59:01;24.50;99.90
4811;DHT22;2419;51.276;6.472;2023-06-22T11:01:31;24.30;99.90
4811;DHT22;2419;51.276;6.472;2023-06-22T11:04:03;24.20;99.90
4811;DHT22;2419;51.276;6.472;2023-06-22T11:06:31;24.10;99.90
4811;DHT22;2419;51.276;6.472;2023-06-22T11:08:59;24.10;99.90
4811;DHT22;2419;51.276;6.472;2023-06-22T11:11:48;24.00;99.90
4811;DHT22;2419;51.276;6.472;2023-06-22T11:14:17;23.90;99.90
4811;DHT22;2419;51.276;6.472;2023-06-22T11:16:46;23.80;99.90
4811;DHT22;2419;51.276;6.472;2023-06-22T11:19:14;23.50;99.90
4811;DHT22;2419;51.276;6.472;2023-06-22T11:21:43;23.40;99.90
4811;DHT22;2419;51.276;6.472;2023-06-22T11:24:11;23.40;99.90
4811;DHT22;2419;51.276;6.472;2023-06-22T11:26:39;23.30;99.90
4811;DHT22;2419;51.276;6.472;2023-06-22T11:29:07;23.10;99.90
4811;DHT22;2419;51.276;6.472;2023-06-22T11:31:42;23.00;99.90
4811;DHT22;2419;51.276;6.472;2023-06-22T11:34:11;22.70;99.90
4811;DHT22;2419;51.276;6.472;2023-06-22T11:36:39;22.70;99.90
4811;DHT22;2419;51.276;6.472;2023-06-22T11:39:08;22.70;99.90
4811;DHT22;2419;51.276;6.472;2023-06-22T11:41:37;22.60;99.90
4811;DHT22;2419;51.276;6.472;2023-06-22T11:44:05;22.40;99.90
4811;DHT22;2419;51.276;6.472;2023-06-22T11:46:33;22.40;99.90
4811;DHT22;2419;51.276;6.472;2023-06-22T11:49:02;22.30;99.90
4811;DHT22;2419;51.276;6.472;2023-06-22T11:51:31;22.30;99.90
4811;DHT22;2419;51.276;6.472;2023-06-22T11:53:59;22.30;99.90
4811;DHT22;2419;51.276;6.472;2023-06-22T11:56:28;22.30;99.90
4811;DHT22;2419;51.276;6.472;2023-06-22T11:58:56;22.30;99.90
4811;DHT22;2419;51.276;6.472;2023-06-22T12:01:24;22.40;99.90
4811;DHT22;2419;51.276;6.472;2023-06-22T12:03:52;22.60;99.90
4811;DHT22;2419;51.276;6.472;2023-06-22T12:06:20;22.70;99.90
4811;DHT22;2419;51.276;6.472;2023-06-22T12:08:50;22.90;99.90
4811;DHT22;2419;51.276;6.472;2023-06-22T12:11:18;23.10;99.90
4811;DHT22;2419;51.276;6.472;2023-06-22T12:13:46;23.20;99.90
4811;DHT22;2419;51.276;6.472;2023-06-22T12:16:14;23.30;99.90
4811;DHT22;2419;51.276;6.472;2023-06-22T12:18:42;23.30;99.90
4811;DHT22;2419;51.276;6.472;2023-06-22T12:21:10;23.30;99.90
4811;DHT22;2419;51.276;6.472;2023-06-22T12:23:38;23.30;99.90
4811;DHT22;2419;51.276;6.472;2023-06-22T12:26:07;23.40;99.90
4811;DHT22;2419;51.276;6.472;2023-06-22T12:28:35;23.40;99.90
4811;DHT22;2419;51.276;6.472;2023-06-22T12:31:03;23.50;99.90
4811;DHT22;2419;51.276;6.472;2023-06-22T12:33:31;23.60;99.90
4811;DHT22;2419;51.276;6.472;2023-06-22T12:35:59;23.70;99.90
4811;DHT22;2419;51.276;6.472;2023-06-22T12:38:28;23.80;99.90
4811;DHT22;2419;51.276;6.472;2023-06-22T12:40:56;23.70;99.90
4811;DHT22;2419;51.276;6.472;2023-06-22T12:43:25;23.70;99.90
4811;DHT22;2419;51.276;6.472;2023-06-22T12:45:53;23.70;99.90
4811;DHT22;2419;51.276;6.472;2023-06-22T12:48:22;23.60;99.90
4811;DHT22;2419;51.276;6.472;2023-06-22T12:50:50;23.50;99.90
4811;DHT22;2419;51.276;6.472;2023-06-22T12:53:19;23.50;99.90
4811;DHT22;2419;51.276;6.472;2023-06-22T12:55:49;23.50;99.90
4811;DHT22;2419;51.276;6.472;2023-06-22T12:58:17;23.50;99.90
4811;DHT22;2419;51.276;6.472;2023-06-22T13:00:46;23.30;99.90
4811;DHT22;2419;51.276;6.472;2023-06-22T13:03:14;23.30;99.90
4811;DHT22;2419;51.276;6.472;2023-06-22T13:05:43;23.20;99.90
4811;DHT22;2419;51.276;6.472;2023-06-22T13:08:11;23.30;99.90
4811;DHT22;2419;51.276;6.472;2023-06-22T13:10:39;23.30;99.90
4811;DHT22;2419;51.276;6.472;2023-06-22T13:13:07;23.30;99.90
4811;DHT22;2419;51.276;6.472;2023-06-22T13:15:35;23.30;99.90
4811;DHT22;2419;51.276;6.472;2023-06-22T13:18:04;23.20;99.90
4811;DHT22;2419;51.276;6.472;2023-06-22T13:20:34;23.10;99.90
4811;DHT22;2419;51.276;6.472;2023-06-22T13:23:02;23.20;99.90
4811;DHT22;2419;51.276;6.472;2023-06-22T13:25:30;23.30;99.90
4811;DHT22;2419;51.276;6.472;2023-06-22T13:27:58;23.30;99.90
4811;DHT22;2419;51.276;6.472;2023-06-22T13:30:26;23.30;99.90
4811;DHT22;2419;51.276;6.472;2023-06-22T13:32:55;23.30;99.90
4811;DHT22;2419;51.276;6.472;2023-06-22T13:35:24;23.40;99.90
4811;DHT22;2419;51.276;6.472;2023-06-22T13:37:52;23.50;99.90
4811;DHT22;2419;51.276;6.472;2023-06-22T13:40:20;23.50;99.90
4811;DHT22;2419;51.276;6.472;2023-06-22T13:42:48;23.50;99.90
4811;DHT22;2419;51.276;6.472;2023-06-22T13:45:16;23.60;99.90
4811;DHT22;2419;51.276;6.472;2023-06-22T13:47:45;23.50;99.90
4811;DHT22;2419;51.276;6.472;2023-06-22T13:50:14;23.50;99.90
4811;DHT22;2419;51.276;6.472;2023-06-22T13:52:43;23.50;99.90
4811;DHT22;2419;51.276;6.472;2023-06-22T13:55:11;23.50;99.90
4811;DHT22;2419;51.276;6.472;2023-06-22T13:57:41;23.50;99.90
4811;DHT22;2419;51.276;6.472;2023-06-22T14:00:10;23.50;99.90
4811;DHT22;2419;51.276;6.472;2023-06-22T14:02:39;23.50;99.90
4811;DHT22;2419;51.276;6.472;2023-06-22T14:05:08;23.40;99.90
4811;DHT22;2419;51.276;6.472;2023-06-22T14:07:37;23.50;99.90
4811;DHT22;2419;51.276;6.472;2023-06-22T14:10:08;23.40;99.90
4811;DHT22;2419;51.276;6.472;2023-06-22T14:12:36;23.30;99.90
4811;DHT22;2419;51.276;6.472;2023-06-22T14:15:05;23.30;99.90
4811;DHT22;2419;51.276;6.472;2023-06-22T14:17:33;23.40;99.90
4811;DHT22;2419;51.276;6.472;2023-06-22T14:20:01;23.50;99.90
4811;DHT22;2419;51.276;6.472;2023-06-22T14:22:30;23.40;99.90
4811;DHT22;2419;51.276;6.472;2023-06-22T14:24:58;23.30;99.90
4811;DHT22;2419;51.276;6.472;2023-06-22T14:27:27;23.30;99.90
4811;DHT22;2419;51.276;6.472;2023-06-22T14:29:55;23.20;99.90
4811;DHT22;2419;51.276;6.472;2023-06-22T14:32:23;23.10;99.90
4811;DHT22;2419;51.276;6.472;2023-06-22T14:34:52;23.20;99.90
4811;DHT22;2419;51.276;6.472;2023-06-22T14:37:20;23.10;99.90
4811;DHT22;2419;51.276;6.472;2023-06-22T14:39:48;23.10;99.90
4811;DHT22;2419;51.276;6.472;2023-06-22T14:42:16;23.10;99.90
4811;DHT22;2419;51.276;6.472;2023-06-22T14:44:45;23.00;99.90
4811;DHT22;2419;51.276;6.472;2023-06-22T14:47:13;22.90;99.90
4811;DHT22;2419;51.276;6.472;2023-06-22T14:49:41;22.80;99.90
4811;DHT22;2419;51.276;6.472;2023-06-22T14:52:09;22.70;99.90
4811;DHT22;2419;51.276;6.472;2023-06-22T14:54:37;22.70;99.90
4811;DHT22;2419;51.276;6.472;2023-06-22T14:57:05;22.70;99.90
4811;DHT22;2419;51.276;6.472;2023-06-22T14:59:33;22.70;99.90
4811;DHT22;2419;51.276;6.472;2023-06-22T15:02:03;22.70;99.90
4811;DHT22;2419;51.276;6.472;2023-06-22T15:04:31;22.70;99.90
4811;DHT22;2419;51.276;6.472;2023-06-22T15:07:01;22.70;99.90
4811;DHT22;2419;51.276;6.472;2023-06-22T15:09:29;22.70;99.90
4811;DHT22;2419;51.276;6.472;2023-06-22T15:11:58;22.60;99.90
4811;DHT22;2419;51.276;6.472;2023-06-22T15:14:28;22.60;99.90
4811;DHT22;2419;51.276;6.472;2023-06-22T15:16:56;22.60;99.90
4811;DHT22;2419;51.276;6.472;2023-06-22T15:19:26;22.50;99.90
4811;DHT22;2419;51.276;6.472;2023-06-22T15:21:54;22.40;99.90
4811;DHT22;2419;51.276;6.472;2023-06-22T15:24:22;22.40;99.90
4811;DHT22;2419;51.276;6.472;2023-06-22T15:26:50;22.30;99.90
4811;DHT22;2419;51.276;6.472;2023-06-22T15:29:18;22.30;99.90
4811;DHT22;2419;51.276;6.472;2023-06-22T15:31:46;22.30;99.90
4811;DHT22;2419;51.276;6.472;2023-06-22T15:34:14;22.30;99.90
4811;DHT22;2419;51.276;6.472;2023-06-22T15:36:44;22.20;99.90
4811;DHT22;2419;51.276;6.472;2023-06-22T15:39:12;22.10;99.90
4811;DHT22;2419;51.276;6.472;2023-06-22T15:41:40;22.00;99.90
4811;DHT22;2419;51.276;6.472;2023-06-22T15:44:09;21.90;99.90
4811;DHT22;2419;51.276;6.472;2023-06-22T15:46:37;21.80;99.90
4811;DHT22;2419;51.276;6.472;2023-06-22T15:49:05;21.70;99.90
4811;DHT22;2419;51.276;6.472;2023-06-22T15:51:33;21.60;99.90
4811;DHT22;2419;51.276;6.472;2023-06-22T15:54:03;21.40;99.90
4811;DHT22;2419;51.276;6.472;2023-06-22T15:56:31;21.30;99.90
4811;DHT22;2419;51.276;6.472;2023-06-22T15:58:59;21.20;99.90
4811;DHT22;2419;51.276;6.472;2023-06-22T16:01:27;21.10;99.90
4811;DHT22;2419;51.276;6.472;2023-06-22T16:03:55;21.00;99.90
4811;DHT22;2419;51.276;6.472;2023-06-22T16:06:24;20.90;99.90
4811;DHT22;2419;51.276;6.472;2023-06-22T16:08:51;20.90;99.90
4811;DHT22;2419;51.276;6.472;2023-06-22T16:11:21;20.80;99.90
4811;DHT22;2419;51.276;6.472;2023-06-22T16:13:49;20.70;99.90